KNTU/NTU METAR and TAF weather

Enter ICAO airport designator
Station Type Date Time Source
KNTU METAR 2019/08/18 08:56 UTC NOAA

KNTU 180856Z 00000KT 10SM SCT150 BKN300 23/22 A2998 RMK AO2 SLP155 T02280217 56010


Station Type Date Time Source
KNTU Decoded METAR 2019/08/18 08:56 UTC NOAA

Station name not available
Aug 18, 2019 - 04:56 AM EDT / 2019.08.18 0856 UTC
Wind: Calm:0
Visibility: 10 mile(s):0
Sky conditions: mostly cloudy
Temperature: 73.0 F (22.8 C)
Dew Point: 71.1 F (21.7 C)
Relative Humidity: 93%
Pressure (altimeter): 29.98 in. Hg (1015 hPa)
Pressure tendency: 0.03 inches (1.0 hPa) lower than three hours ago
ob: KNTU 180856Z 00000KT 10SM SCT150 BKN300 23/22 A2998 RMK AO2 SLP155 T02280217 56010
cycle: 9

Station Type Date Time Source
KNTU TAF 2019/08/18 07:24 UTC NOAA

TAF KNTU 1807/1907 VRB05KT 9999 SCT100 QNH29988INS
BECMG 1810/1812 20010KT 9999 SCT025 BKN100 OVC250 QNH2986INS
FM181600 17008KT 9999 VCTS BKN020CB BKN100 OVC250 QNH2987INS
TEMPO 1817/1823 VRB20G30KT 3200 TSRA BKN010CB OVC020
BECMG 1823/1901 VRB06KT 9999 NSW FEW020 SCT100 QNH2989INS T23/1809Z T27/1821Z FN00216

Example: see airport list